createdAt,value
2022-08-20T00:02:10.313Z,16.58
2022-08-20T00:04:37.165Z,15.20
2022-08-20T00:07:06.472Z,16.67
2022-08-20T00:09:36.722Z,15.88
2022-08-20T00:12:05.553Z,15.20
2022-08-20T00:14:33.907Z,15.10
2022-08-20T00:17:01.752Z,16.98
2022-08-20T00:19:29.093Z,16.33
2022-08-20T00:21:56.474Z,15.02
2022-08-20T00:24:24.892Z,53.90
2022-08-20T00:26:51.975Z,19.23
2022-08-20T00:29:20.266Z,15.90
2022-08-20T00:31:47.310Z,16.92
2022-08-20T00:34:14.304Z,15.15
2022-08-20T00:36:41.076Z,14.47
2022-08-20T00:39:07.789Z,14.98
2022-08-20T00:41:34.445Z,17.15
2022-08-20T00:44:11.548Z,17.73
2022-08-20T00:46:39.744Z,18.30
2022-08-20T00:49:17.595Z,19.77
2022-08-20T00:51:53.280Z,19.27
2022-08-20T00:54:37.403Z,20.23
2022-08-20T00:57:24.761Z,20.95
2022-08-20T00:59:52.794Z,22.40
2022-08-20T01:02:23.025Z,21.73
2022-08-20T01:04:54.642Z,20.67
2022-08-20T01:07:32.161Z,21.88
2022-08-20T01:10:00.470Z,23.95
2022-08-20T01:12:29.692Z,20.25
2022-08-20T01:15:00.402Z,20.07
2022-08-20T01:17:29.866Z,17.88
2022-08-20T01:20:15.937Z,16.90
2022-08-20T01:23:04.152Z,17.42
2022-08-20T01:25:41.477Z,21.63
2022-08-20T01:28:09.836Z,23.30
2022-08-20T01:30:37.786Z,25.38
2022-08-20T01:33:06.003Z,24.52
2022-08-20T01:35:40.865Z,29.83
2022-08-20T01:38:08.566Z,21.80
2022-08-20T01:40:56.904Z,23.20
2022-08-20T01:43:24.191Z,24.90
2022-08-20T01:45:52.917Z,22.45
2022-08-20T01:48:20.631Z,21.30
2022-08-20T01:50:55.587Z,22.40
2022-08-20T01:53:30.189Z,23.73
2022-08-20T01:55:56.940Z,20.77
2022-08-20T01:58:23.618Z,20.67
2022-08-20T02:00:50.500Z,20.95
2022-08-20T02:03:17.203Z,20.15
2022-08-20T02:05:44.022Z,19.43
2022-08-20T02:08:10.717Z,19.98
2022-08-20T02:10:37.393Z,22.42
2022-08-20T02:13:05.704Z,22.95
2022-08-20T02:15:37.473Z,23.95
2022-08-20T02:18:10.520Z,25.43
2022-08-20T02:20:38.915Z,21.08
2022-08-20T02:23:07.720Z,22.35
2022-08-20T02:25:37.200Z,20.55
2022-08-20T02:28:08.202Z,23.85
2022-08-20T02:30:39.176Z,22.50
2022-08-20T02:33:09.760Z,23.60
2022-08-20T02:35:37.917Z,26.30
2022-08-20T02:38:04.998Z,23.08
2022-08-20T02:40:32.094Z,22.17
2022-08-20T02:43:00.330Z,24.30
2022-08-20T02:45:28.754Z,22.88
2022-08-20T02:47:57.109Z,20.42
2022-08-20T02:50:25.991Z,23.08
2022-08-20T02:52:52.884Z,20.92
2022-08-20T02:55:28.214Z,21.13
2022-08-20T02:57:59.057Z,20.65
2022-08-20T03:00:28.574Z,21.60
2022-08-20T03:02:55.494Z,19.50
2022-08-20T03:05:22.344Z,20.88
2022-08-20T03:07:56.387Z,22.30
2022-08-20T03:10:26.141Z,19.52
2022-08-20T03:12:53.050Z,22.05
2022-08-20T03:15:20.368Z,21.95
2022-08-20T03:17:48.324Z,22.95
2022-08-20T03:20:15.269Z,21.80
2022-08-20T03:22:42.480Z,21.40
2022-08-20T03:25:10.891Z,20.17
2022-08-20T03:27:37.783Z,18.70
2022-08-20T03:30:08.475Z,18.65
2022-08-20T03:32:35.729Z,21.63
2022-08-20T03:35:02.544Z,20.75
2022-08-20T03:37:34.873Z,20.88
2022-08-20T03:40:03.530Z,41.10
2022-08-20T03:42:31.185Z,23.10
2022-08-20T03:44:58.974Z,20.97
2022-08-20T03:47:27.023Z,20.38
2022-08-20T03:49:59.046Z,21.25
2022-08-20T03:52:28.558Z,19.30
2022-08-20T03:54:56.161Z,17.95
2022-08-20T03:57:23.469Z,18.90
2022-08-20T03:59:55.132Z,27.63
2022-08-20T04:02:25.648Z,64.72
2022-08-20T04:04:52.363Z,69.28
2022-08-20T04:07:27.449Z,66.95
2022-08-20T04:09:57.636Z,44.57
2022-08-20T04:12:25.192Z,64.65
2022-08-20T04:14:54.313Z,41.40
2022-08-20T04:17:21.054Z,164.52
2022-08-20T04:19:49.265Z,64.80
2022-08-20T04:22:15.942Z,79.67
2022-08-20T04:24:43.653Z,67.45
2022-08-20T04:27:10.913Z,58.38
2022-08-20T04:29:37.711Z,28.75
2022-08-20T04:32:06.083Z,23.10
2022-08-20T04:34:34.169Z,38.57
2022-08-20T04:37:00.882Z,220.25
2022-08-20T04:39:27.546Z,172.82
2022-08-20T04:41:55.441Z,206.38
2022-08-20T04:44:22.746Z,37.30
2022-08-20T04:46:49.496Z,46.43
2022-08-20T04:49:16.191Z,52.00
2022-08-20T04:51:42.920Z,47.67
2022-08-20T04:54:09.616Z,92.13
2022-08-20T04:56:39.643Z,80.95
2022-08-20T04:59:07.420Z,79.40
2022-08-20T05:01:37.827Z,53.00
2022-08-20T05:04:04.603Z,29.25
2022-08-20T05:06:31.890Z,19.67
2022-08-20T05:09:00.511Z,29.27
2022-08-20T05:11:33.669Z,23.70
2022-08-20T05:14:05.497Z,17.80
2022-08-20T05:16:37.638Z,25.98
2022-08-20T05:19:04.528Z,12.95
2022-08-20T05:21:31.181Z,15.48
2022-08-20T05:23:57.796Z,13.40
2022-08-20T05:26:26.427Z,19.75
2022-08-20T05:28:58.637Z,23.65
2022-08-20T05:31:31.924Z,25.65
2022-08-20T05:34:12.133Z,25.88
2022-08-20T05:36:41.300Z,27.83
2022-08-20T05:39:10.037Z,25.48
2022-08-20T05:41:38.373Z,14.73
2022-08-20T05:44:09.862Z,14.13
2022-08-20T05:46:40.853Z,16.20
2022-08-20T05:49:09.164Z,12.03
2022-08-20T05:51:36.976Z,16.40
2022-08-20T05:54:05.324Z,26.70
2022-08-20T05:56:32.512Z,19.52
2022-08-20T05:59:04.413Z,99.97
2022-08-20T06:01:32.366Z,45.90
2022-08-20T06:04:17.619Z,41.40
2022-08-20T06:06:47.114Z,12.93
2022-08-20T06:09:31.820Z,7.93
2022-08-20T06:12:05.912Z,17.95
2022-08-20T06:14:33.369Z,7.10
2022-08-20T06:17:17.630Z,11.05
2022-08-20T06:19:46.091Z,8.77
2022-08-20T06:22:18.526Z,6.50
2022-08-20T06:24:51.569Z,7.68
2022-08-20T06:27:18.358Z,7.10
2022-08-20T06:29:45.780Z,8.27
2022-08-20T06:32:12.586Z,6.78
2022-08-20T06:34:50.936Z,8.32
2022-08-20T06:37:27.413Z,6.70
2022-08-20T06:40:03.520Z,6.87
2022-08-20T06:42:30.520Z,7.03
2022-08-20T06:44:59.521Z,6.93
2022-08-20T06:47:26.258Z,8.18
2022-08-20T06:49:52.961Z,7.75
2022-08-20T06:52:19.651Z,8.70
2022-08-20T06:54:56.703Z,7.80
2022-08-20T06:57:23.384Z,7.78
2022-08-20T06:59:54.072Z,8.82
2022-08-20T07:02:21.209Z,8.38
2022-08-20T07:04:56.230Z,7.60
2022-08-20T07:07:22.912Z,7.88
2022-08-20T07:09:49.637Z,8.10
2022-08-20T07:12:16.345Z,8.02
2022-08-20T07:14:43.040Z,9.02
2022-08-20T07:17:12.267Z,8.60
2022-08-20T07:19:39.182Z,8.57
2022-08-20T07:22:06.737Z,7.60
2022-08-20T07:24:34.963Z,7.85
2022-08-20T07:27:04.792Z,7.68
2022-08-20T07:29:51.476Z,9.97
2022-08-20T07:32:39.615Z,7.70
2022-08-20T07:35:11.234Z,8.73
2022-08-20T07:37:43.496Z,10.25
2022-08-20T07:40:21.279Z,7.90
2022-08-20T07:42:50.736Z,7.73
2022-08-20T07:45:18.794Z,8.57
2022-08-20T07:47:48.088Z,7.50
2022-08-20T07:50:19.092Z,7.32
2022-08-20T07:52:46.564Z,6.60
2022-08-20T07:55:16.394Z,6.43
2022-08-20T07:57:45.652Z,6.85
2022-08-20T08:00:13.704Z,5.50
2022-08-20T08:02:40.488Z,5.55
2022-08-20T08:05:07.761Z,5.22
2022-08-20T08:07:35.520Z,6.40
2022-08-20T08:10:07.363Z,5.40
2022-08-20T08:12:40.944Z,6.53
2022-08-20T08:15:12.584Z,7.80
2022-08-20T08:17:39.292Z,5.57
2022-08-20T08:20:08.460Z,6.23
2022-08-20T08:22:35.176Z,7.90
2022-08-20T08:25:02.721Z,7.05
2022-08-20T08:27:33.272Z,6.00
2022-08-20T08:30:01.128Z,5.50
2022-08-20T08:32:28.555Z,6.37
2022-08-20T08:34:55.282Z,5.05
2022-08-20T08:37:21.983Z,7.07
2022-08-20T08:39:49.104Z,6.72
2022-08-20T08:42:25.952Z,9.25
2022-08-20T08:44:54.489Z,6.43
2022-08-20T08:47:35.962Z,7.75
2022-08-20T08:50:05.646Z,5.57
2022-08-20T08:52:36.985Z,10.88
2022-08-20T08:55:07.014Z,30.08
2022-08-20T08:57:34.269Z,7.97
2022-08-20T09:00:15.618Z,6.35
2022-08-20T09:03:00.060Z,16.13
2022-08-20T09:05:37.325Z,10.02
2022-08-20T09:08:16.685Z,5.85
2022-08-20T09:10:44.973Z,7.87
2022-08-20T09:13:12.373Z,7.43
2022-08-20T09:15:39.154Z,10.70
2022-08-20T09:18:05.825Z,10.05
2022-08-20T09:20:32.582Z,9.15
2022-08-20T09:22:59.287Z,7.13
2022-08-20T09:25:26.088Z,6.70
2022-08-20T09:27:52.843Z,6.75
2022-08-20T09:30:19.795Z,7.60
2022-08-20T09:32:47.212Z,9.00
2022-08-20T09:35:13.861Z,8.30
2022-08-20T09:37:40.587Z,8.90
2022-08-20T09:40:08.889Z,9.15
2022-08-20T09:42:41.403Z,8.35
2022-08-20T09:45:11.069Z,7.78
2022-08-20T09:47:43.851Z,7.90
2022-08-20T09:50:21.964Z,8.77
2022-08-20T09:52:53.143Z,9.38
2022-08-20T09:55:40.686Z,9.15
2022-08-20T09:58:31.015Z,9.18
2022-08-20T10:00:58.800Z,8.73
2022-08-20T10:03:25.492Z,7.20
2022-08-20T10:05:52.217Z,8.32
2022-08-20T10:08:18.905Z,6.45
2022-08-20T10:10:45.581Z,5.75
2022-08-20T10:13:13.251Z,6.67
2022-08-20T10:15:42.460Z,4.70
2022-08-20T10:18:09.495Z,6.65
2022-08-20T10:20:39.294Z,5.50
2022-08-20T10:23:06.145Z,6.30
2022-08-20T10:25:32.952Z,7.03
2022-08-20T10:27:59.692Z,6.28
2022-08-20T10:30:26.638Z,6.57
2022-08-20T10:32:53.342Z,5.07
2022-08-20T10:35:20.212Z,4.50
2022-08-20T10:37:46.907Z,4.30
2022-08-20T10:40:15.831Z,4.00
2022-08-20T10:42:45.828Z,4.22
2022-08-20T10:45:15.274Z,4.70
2022-08-20T10:47:43.160Z,4.32
2022-08-20T10:50:13.633Z,5.27
2022-08-20T10:52:40.527Z,5.63
2022-08-20T10:55:07.981Z,4.30
2022-08-20T10:57:34.789Z,4.60
2022-08-20T11:00:01.913Z,4.28
2022-08-20T11:02:29.942Z,4.60
2022-08-20T11:04:56.910Z,3.72
2022-08-20T11:07:55.565Z,4.68
2022-08-20T11:10:26.207Z,3.30
2022-08-20T11:12:52.945Z,3.67
2022-08-20T11:15:19.621Z,4.53
2022-08-20T11:17:46.420Z,4.55
2022-08-20T11:20:15.849Z,3.47
2022-08-20T11:22:42.566Z,4.28
2022-08-20T11:25:10.126Z,3.33
2022-08-20T11:27:39.632Z,4.07
2022-08-20T11:30:11.121Z,4.55
2022-08-20T11:32:37.973Z,3.88
2022-08-20T11:35:19.192Z,4.63
2022-08-20T11:37:53.973Z,33.50
2022-08-20T11:40:21.378Z,6.10
2022-08-20T11:43:10.948Z,4.57
2022-08-20T11:45:37.430Z,5.05
2022-08-20T11:48:05.572Z,3.45
2022-08-20T11:50:32.631Z,2.80
2022-08-20T11:53:01.205Z,2.97
2022-08-20T11:55:30.352Z,2.80
2022-08-20T11:58:00.416Z,2.90
2022-08-20T12:00:31.720Z,3.30
2022-08-20T12:03:05.107Z,2.78
2022-08-20T12:05:33.153Z,2.70
2022-08-20T12:08:04.087Z,3.15
2022-08-20T12:10:31.457Z,3.05
2022-08-20T12:12:58.248Z,3.53
2022-08-20T12:15:26.807Z,4.78
2022-08-20T12:17:54.823Z,3.93
2022-08-20T12:20:23.586Z,3.83
2022-08-20T12:22:50.842Z,4.15
2022-08-20T12:25:17.783Z,4.15
2022-08-20T12:27:46.241Z,3.15
2022-08-20T12:30:20.453Z,3.00
2022-08-20T12:32:47.645Z,3.85
2022-08-20T12:35:16.097Z,3.53
2022-08-20T12:37:43.910Z,2.92
2022-08-20T12:40:14.780Z,3.13
2022-08-20T12:42:41.722Z,2.90
2022-08-20T12:45:09.212Z,4.28
2022-08-20T12:47:39.525Z,2.70
2022-08-20T12:50:10.071Z,3.22
2022-08-20T12:52:37.327Z,2.78
2022-08-20T12:55:06.748Z,3.10
2022-08-20T12:57:36.631Z,3.03
2022-08-20T13:00:34.373Z,6.45
2022-08-20T13:03:03.646Z,2.85
2022-08-20T13:05:31.706Z,3.83
2022-08-20T13:07:58.725Z,3.27
2022-08-20T13:10:33.381Z,4.30
2022-08-20T13:13:04.211Z,5.28
2022-08-20T13:15:32.279Z,3.17
2022-08-20T13:18:01.537Z,3.17
2022-08-20T13:20:34.126Z,2.20
2022-08-20T13:23:06.274Z,2.60
2022-08-20T13:25:33.794Z,3.05
2022-08-20T13:28:04.481Z,2.55
2022-08-20T13:30:32.712Z,2.47
2022-08-20T13:32:59.556Z,1.80
2022-08-20T13:35:26.687Z,2.33
2022-08-20T13:37:53.538Z,1.85
2022-08-20T13:40:20.681Z,2.05
2022-08-20T13:42:47.571Z,2.88
2022-08-20T13:45:14.490Z,1.90
2022-08-20T13:47:42.580Z,1.65
2022-08-20T13:50:20.492Z,2.20
2022-08-20T13:52:47.589Z,1.92
2022-08-20T13:55:18.827Z,2.17
2022-08-20T13:57:46.183Z,2.27
2022-08-20T14:00:17.236Z,2.30
2022-08-20T14:02:44.665Z,3.80
2022-08-20T14:05:12.087Z,4.53
2022-08-20T14:07:44.598Z,2.60
2022-08-20T14:10:16.877Z,3.00
2022-08-20T14:12:43.953Z,4.47
2022-08-20T14:15:11.773Z,4.20
2022-08-20T14:17:42.049Z,4.28
2022-08-20T14:20:14.072Z,2.58
2022-08-20T14:22:42.669Z,3.70
2022-08-20T14:25:11.862Z,2.83
2022-08-20T14:27:38.954Z,2.40
2022-08-20T14:30:09.211Z,2.28
2022-08-20T14:32:35.961Z,3.22
2022-08-20T14:35:02.949Z,2.70
2022-08-20T14:37:33.015Z,2.00
2022-08-20T14:40:01.803Z,1.92
2022-08-20T14:42:29.738Z,1.83
2022-08-20T14:44:57.374Z,2.05
2022-08-20T14:47:30.169Z,1.40
2022-08-20T14:50:04.606Z,1.73
2022-08-20T14:52:32.948Z,1.30
2022-08-20T14:54:59.661Z,1.58
2022-08-20T14:57:26.343Z,2.50
2022-08-20T14:59:53.652Z,2.17
2022-08-20T15:02:20.499Z,2.03
2022-08-20T15:04:54.080Z,1.48
2022-08-20T15:07:27.330Z,1.80
2022-08-20T15:09:55.316Z,2.10
2022-08-20T15:12:22.879Z,1.90
2022-08-20T15:14:50.480Z,2.17
2022-08-20T15:17:22.981Z,2.65
2022-08-20T15:19:49.988Z,2.20
2022-08-20T15:22:18.066Z,2.30
2022-08-20T15:24:44.919Z,2.50
2022-08-20T15:27:23.040Z,2.40
2022-08-20T15:29:51.409Z,2.15
2022-08-20T15:32:18.903Z,2.10
2022-08-20T15:34:46.817Z,2.10
2022-08-20T15:37:17.864Z,2.23
2022-08-20T15:39:45.101Z,2.20
2022-08-20T15:42:13.092Z,2.60
2022-08-20T15:44:40.789Z,2.53
2022-08-20T15:47:16.728Z,2.50
2022-08-20T15:49:44.614Z,2.30
2022-08-20T15:52:11.868Z,3.17
2022-08-20T15:54:39.467Z,2.97
2022-08-20T15:57:06.229Z,4.10
2022-08-20T16:00:00.261Z,2.50
2022-08-20T16:03:11.780Z,2.93
2022-08-20T16:05:56.195Z,2.28
2022-08-20T16:08:58.221Z,2.05
2022-08-20T16:11:44.448Z,1.95
2022-08-20T16:14:16.112Z,3.65
2022-08-20T16:16:56.633Z,2.20
2022-08-20T16:19:34.958Z,2.33
2022-08-20T16:22:04.715Z,2.28
2022-08-20T16:24:32.362Z,2.53
2022-08-20T16:27:17.221Z,2.20
2022-08-20T16:29:58.968Z,2.03
2022-08-20T16:32:25.751Z,2.60
2022-08-20T16:35:29.548Z,2.28
2022-08-20T16:38:20.995Z,2.50
2022-08-20T16:41:02.097Z,2.95
2022-08-20T16:43:36.791Z,2.63
2022-08-20T16:46:06.393Z,2.47
2022-08-20T16:48:41.432Z,2.22
2022-08-20T16:51:17.823Z,3.10
2022-08-20T16:53:44.800Z,2.53
2022-08-20T16:56:11.859Z,2.77
2022-08-20T16:58:39.061Z,2.30
2022-08-20T17:01:11.994Z,3.75
2022-08-20T17:03:47.742Z,2.20
2022-08-20T17:06:25.761Z,2.88
2022-08-20T17:08:53.079Z,2.70
2022-08-20T17:11:33.134Z,3.28
2022-08-20T17:14:13.473Z,4.47
2022-08-20T17:16:45.590Z,3.40
2022-08-20T17:19:33.813Z,2.75
2022-08-20T17:22:14.683Z,3.10
2022-08-20T17:24:41.698Z,3.30
2022-08-20T17:27:15.037Z,4.03
2022-08-20T17:30:04.861Z,3.20
2022-08-20T17:32:32.102Z,7.32
2022-08-20T17:35:02.138Z,3.17
2022-08-20T17:37:40.819Z,4.55
2022-08-20T17:40:17.292Z,4.40
2022-08-20T17:42:47.209Z,3.08
2022-08-20T17:45:24.390Z,4.38
2022-08-20T17:47:52.813Z,3.07
2022-08-20T17:50:23.624Z,3.30
2022-08-20T17:52:53.284Z,3.30
2022-08-20T17:55:20.874Z,3.13
2022-08-20T17:57:55.967Z,2.80
2022-08-20T18:00:26.192Z,3.93
2022-08-20T18:02:57.613Z,3.22
2022-08-20T18:05:24.912Z,4.95
2022-08-20T18:08:16.957Z,2.85
2022-08-20T18:11:03.725Z,3.75
2022-08-20T18:13:33.659Z,3.60
2022-08-20T18:16:02.159Z,2.72
2022-08-20T18:19:10.511Z,2.90
2022-08-20T18:22:06.356Z,3.97
2022-08-20T18:25:08.593Z,3.13
2022-08-20T18:27:46.452Z,2.67
2022-08-20T18:30:22.203Z,3.00
2022-08-20T18:32:59.451Z,3.05
2022-08-20T18:35:34.330Z,3.30
2022-08-20T18:38:27.709Z,3.03
2022-08-20T18:41:06.215Z,3.07
2022-08-20T18:43:32.989Z,3.33
2022-08-20T18:46:23.495Z,3.90
2022-08-20T18:48:57.036Z,3.22
2022-08-20T18:51:50.382Z,6.30
2022-08-20T18:54:25.193Z,3.23
2022-08-20T18:57:24.938Z,3.13
2022-08-20T19:00:01.876Z,3.20
2022-08-20T19:02:33.465Z,4.85
2022-08-20T19:05:04.945Z,3.90
2022-08-20T19:07:48.445Z,2.70
2022-08-20T19:10:52.616Z,2.78
2022-08-20T19:13:40.587Z,3.10
2022-08-20T19:16:18.263Z,4.10
2022-08-20T19:18:52.843Z,3.10
2022-08-20T19:21:29.735Z,3.87
2022-08-20T19:24:01.246Z,3.42
2022-08-20T19:26:31.464Z,3.92
2022-08-20T19:29:02.231Z,3.95
2022-08-20T19:31:33.104Z,4.97
2022-08-20T19:34:20.184Z,6.93
2022-08-20T19:37:09.178Z,4.38
2022-08-20T19:39:50.911Z,3.70
2022-08-20T19:42:23.011Z,3.72
2022-08-20T19:45:01.321Z,3.38
2022-08-20T19:47:34.008Z,3.90
2022-08-20T19:50:11.234Z,3.67
2022-08-20T19:52:56.286Z,4.78
2022-08-20T19:55:28.046Z,3.95
2022-08-20T19:58:00.710Z,3.95
2022-08-20T20:00:30.654Z,4.30
2022-08-20T20:03:08.703Z,4.32
2022-08-20T20:05:35.523Z,4.75
2022-08-20T20:08:04.057Z,6.30
2022-08-20T20:10:34.980Z,4.43
2022-08-20T20:13:10.296Z,3.70
2022-08-20T20:15:38.058Z,4.15
2022-08-20T20:18:06.095Z,3.50
2022-08-20T20:20:38.482Z,3.80
2022-08-20T20:23:45.555Z,3.70
2022-08-20T20:26:17.557Z,4.10
2022-08-20T20:28:49.604Z,3.78
2022-08-20T20:31:29.799Z,4.82
2022-08-20T20:34:04.417Z,5.68
2022-08-20T20:36:40.828Z,4.05
2022-08-20T20:39:30.175Z,4.13
2022-08-20T20:41:59.893Z,3.92
2022-08-20T20:44:36.906Z,5.07
2022-08-20T20:47:08.229Z,4.57
2022-08-20T20:50:25.231Z,4.00
2022-08-20T20:52:54.630Z,5.23
2022-08-20T20:55:22.861Z,4.43
2022-08-20T20:57:50.972Z,4.90
2022-08-20T21:00:19.917Z,8.13
2022-08-20T21:02:47.035Z,4.60
2022-08-20T21:05:16.296Z,3.93
2022-08-20T21:07:57.108Z,5.78
2022-08-20T21:10:27.809Z,5.45
2022-08-20T21:12:54.901Z,5.82
2022-08-20T21:15:23.690Z,4.05
2022-08-20T21:17:51.364Z,5.60
2022-08-20T21:20:19.200Z,3.70
2022-08-20T21:22:45.877Z,4.93
2022-08-20T21:25:13.365Z,6.07
2022-08-20T21:27:44.394Z,5.97
2022-08-20T21:30:11.761Z,4.40
2022-08-20T21:32:38.412Z,4.40
2022-08-20T21:35:05.623Z,4.90
2022-08-20T21:37:32.518Z,4.95
2022-08-20T21:39:59.277Z,5.20
2022-08-20T21:42:29.624Z,4.73
2022-08-20T21:44:57.828Z,5.50
2022-08-20T21:47:25.074Z,5.13
2022-08-20T21:49:52.478Z,4.85
2022-08-20T21:52:19.210Z,5.30
2022-08-20T21:54:45.947Z,5.50
2022-08-20T21:57:33.221Z,5.22
2022-08-20T22:00:02.256Z,4.68
2022-08-20T22:02:30.008Z,5.25
2022-08-20T22:04:56.682Z,7.25
2022-08-20T22:07:23.513Z,4.37
2022-08-20T22:09:50.136Z,12.23
2022-08-20T22:12:22.664Z,22.50
2022-08-20T22:14:49.533Z,24.63
2022-08-20T22:17:16.522Z,24.73
2022-08-20T22:19:43.425Z,6.27
2022-08-20T22:22:11.667Z,5.50
2022-08-20T22:24:39.049Z,7.43
2022-08-20T22:27:06.077Z,7.93
2022-08-20T22:29:32.846Z,20.35
2022-08-20T22:32:00.379Z,16.67
2022-08-20T22:34:31.255Z,11.32
2022-08-20T22:36:59.503Z,21.50
2022-08-20T22:39:26.706Z,39.42
2022-08-20T22:41:53.515Z,21.90
2022-08-20T22:44:20.632Z,28.53
2022-08-20T22:46:51.541Z,11.80
2022-08-20T22:49:23.776Z,16.55
2022-08-20T22:51:50.655Z,17.70
2022-08-20T22:54:22.220Z,50.33
2022-08-20T22:56:49.712Z,89.77
2022-08-20T22:59:18.164Z,114.97
2022-08-20T23:01:46.300Z,126.22
2022-08-20T23:04:22.291Z,38.65
2022-08-20T23:06:49.349Z,13.30
2022-08-20T23:09:21.114Z,45.40
2022-08-20T23:11:48.395Z,69.25
2022-08-20T23:14:15.456Z,25.08
2022-08-20T23:16:45.164Z,50.53
2022-08-20T23:19:21.388Z,35.88
2022-08-20T23:21:52.462Z,20.97
2022-08-20T23:24:19.771Z,18.92
2022-08-20T23:26:52.766Z,65.07
2022-08-20T23:29:22.615Z,43.85
2022-08-20T23:31:54.710Z,9.85
2022-08-20T23:34:21.565Z,9.10
2022-08-20T23:36:48.544Z,10.15
2022-08-20T23:39:15.393Z,12.70
2022-08-20T23:41:47.580Z,15.98
2022-08-20T23:44:25.854Z,40.67
2022-08-20T23:47:00.608Z,43.70
2022-08-20T23:49:28.618Z,48.85
2022-08-20T23:51:55.796Z,29.13
2022-08-20T23:54:22.570Z,102.65
2022-08-20T23:56:49.564Z,13.27
2022-08-20T23:59:16.491Z,14.83
